createdAt,value
2023-04-03T00:00:14.848Z,50.877216
2023-04-03T00:01:14.879Z,50.877197
2023-04-03T00:02:14.842Z,50.877186
2023-04-03T00:03:14.857Z,50.877182
2023-04-03T00:04:14.794Z,50.877182
2023-04-03T00:05:14.811Z,50.877178
2023-04-03T00:06:14.790Z,50.877190
2023-04-03T00:07:14.827Z,50.877190
2023-04-03T00:08:14.743Z,50.877216
2023-04-03T00:09:14.832Z,50.877190
2023-04-03T00:10:14.715Z,50.877193
2023-04-03T00:11:14.748Z,50.877201
2023-04-03T00:12:14.706Z,50.877193
2023-04-03T00:13:14.763Z,50.877193
2023-04-03T00:14:14.707Z,50.877193
2023-04-03T00:15:14.676Z,50.877190
2023-04-03T00:16:14.796Z,50.877197
2023-04-03T00:17:14.678Z,50.877186
2023-04-03T00:18:14.689Z,50.877193
2023-04-03T00:19:14.665Z,50.877193
2023-04-03T00:20:14.646Z,50.877186
2023-04-03T00:21:14.650Z,50.877220
2023-04-03T00:22:14.628Z,50.877209
2023-04-03T00:23:14.646Z,50.877174
2023-04-03T00:24:14.620Z,50.877190
2023-04-03T00:25:14.573Z,50.877209
2023-04-03T00:26:14.568Z,50.877213
2023-04-03T00:27:14.583Z,50.877209
2023-04-03T00:28:14.555Z,50.877193
2023-04-03T00:29:14.582Z,50.877190
2023-04-03T00:30:14.561Z,50.877171
2023-04-03T00:31:14.557Z,50.877190
2023-04-03T00:32:14.504Z,50.877220
2023-04-03T00:33:14.573Z,50.877247
2023-04-03T00:34:14.515Z,50.877224
2023-04-03T00:35:14.523Z,50.877190
2023-04-03T00:36:14.540Z,50.877220
2023-04-03T00:37:14.472Z,50.877216
2023-04-03T00:38:14.490Z,50.877193
2023-04-03T00:39:14.484Z,50.877251
2023-04-03T00:40:14.431Z,50.877235
2023-04-03T00:41:14.419Z,50.877235
2023-04-03T00:42:14.420Z,50.877178
2023-04-03T00:43:14.428Z,50.877178
2023-04-03T00:44:14.427Z,50.877178
2023-04-03T00:45:14.415Z,50.877178
2023-04-03T00:46:14.441Z,50.877178
2023-04-03T00:47:14.361Z,50.877178
2023-04-03T00:48:14.362Z,50.877178
2023-04-03T00:49:14.341Z,50.877178
2023-04-03T00:50:14.400Z,50.877178
2023-04-03T00:51:14.371Z,50.877178
2023-04-03T00:52:14.314Z,50.877178
2023-04-03T00:53:14.312Z,50.877178
2023-04-03T00:54:14.301Z,50.877178
2023-04-03T00:55:14.314Z,50.877178
2023-04-03T00:56:14.327Z,50.877178
2023-04-03T00:57:14.279Z,50.877178
2023-04-03T00:58:14.266Z,50.877178
2023-04-03T00:59:14.259Z,50.877300
2023-04-03T01:00:14.320Z,50.877369
2023-04-03T01:01:14.301Z,50.877342
2023-04-03T01:02:14.214Z,50.877285
2023-04-03T01:03:14.307Z,50.877274
2023-04-03T01:04:14.239Z,50.877258
2023-04-03T01:05:14.206Z,50.877293
2023-04-03T01:06:14.232Z,50.877216
2023-04-03T01:07:14.195Z,50.877228
2023-04-03T01:08:14.180Z,50.877228
2023-04-03T01:09:14.188Z,50.877228
2023-04-03T01:10:14.176Z,50.877247
2023-04-03T01:11:14.162Z,50.877132
2023-04-03T01:12:14.147Z,50.877209
2023-04-03T01:13:14.120Z,50.877235
2023-04-03T01:14:14.170Z,50.877224
2023-04-03T01:15:14.124Z,50.877201
2023-04-03T01:16:14.141Z,50.877216
2023-04-03T01:17:14.099Z,50.877243
2023-04-03T01:18:14.095Z,50.877262
2023-04-03T01:19:14.065Z,50.877361
2023-04-03T01:20:14.044Z,50.877388
2023-04-03T01:21:14.074Z,50.877354
2023-04-03T01:22:14.012Z,50.877327
2023-04-03T01:23:14.033Z,50.877323
2023-04-03T01:24:14.048Z,50.877361
2023-04-03T01:25:14.013Z,50.877182
2023-04-03T01:26:14.032Z,50.877106
2023-04-03T01:27:14.004Z,50.877190
2023-04-03T01:28:13.986Z,50.877232
2023-04-03T01:29:13.942Z,50.877186
2023-04-03T01:30:14.002Z,50.877247
2023-04-03T01:31:13.952Z,50.877262
2023-04-03T01:32:13.955Z,50.877171
2023-04-03T01:33:13.912Z,50.877235
2023-04-03T01:34:13.897Z,50.877220
2023-04-03T01:35:13.939Z,50.877224
2023-04-03T01:36:13.939Z,50.877285
2023-04-03T01:37:13.889Z,50.877216
2023-04-03T01:38:13.877Z,50.877171
2023-04-03T01:39:13.843Z,50.877205
2023-04-03T01:40:13.862Z,50.877151
2023-04-03T01:41:13.845Z,50.877190
2023-04-03T01:42:13.830Z,50.877117
2023-04-03T01:43:13.851Z,50.877209
2023-04-03T01:44:13.822Z,50.877220
2023-04-03T01:45:13.797Z,50.877232
2023-04-03T01:46:13.800Z,50.877274
2023-04-03T01:47:13.802Z,50.877331
2023-04-03T01:48:13.779Z,50.877213
2023-04-03T01:49:13.797Z,50.877243
2023-04-03T01:50:13.786Z,50.877220
2023-04-03T01:51:13.743Z,50.877224
2023-04-03T01:52:13.756Z,50.877228
2023-04-03T01:53:13.736Z,50.877136
2023-04-03T01:54:13.716Z,50.877213
2023-04-03T01:55:13.747Z,50.877186
2023-04-03T01:56:13.710Z,50.877262
2023-04-03T01:57:13.725Z,50.877251
2023-04-03T01:58:13.662Z,50.877281
2023-04-03T01:59:13.671Z,50.877235
2023-04-03T02:00:13.680Z,50.877266
2023-04-03T02:01:13.693Z,50.877232
2023-04-03T02:02:13.651Z,50.877235
2023-04-03T02:03:13.647Z,50.877289
2023-04-03T02:04:13.665Z,50.877262
2023-04-03T02:05:13.602Z,50.877270
2023-04-03T02:06:13.633Z,50.877209
2023-04-03T02:07:13.601Z,50.877163
2023-04-03T02:08:13.614Z,50.877224
2023-04-03T02:09:13.582Z,50.877338
2023-04-03T02:10:13.652Z,50.877316
2023-04-03T02:11:13.548Z,50.877312
2023-04-03T02:12:13.604Z,50.877338
2023-04-03T02:13:13.543Z,50.877361
2023-04-03T02:14:13.516Z,50.877419
2023-04-03T02:15:13.518Z,50.877327
2023-04-03T02:16:13.525Z,50.877285
2023-04-03T02:17:13.483Z,50.877209
2023-04-03T02:18:39.437Z,50.877171
2023-04-03T02:19:13.450Z,50.877338
2023-04-03T02:20:13.451Z,50.877338
2023-04-03T02:21:13.447Z,50.877247
2023-04-03T02:22:13.421Z,50.877182
2023-04-03T02:23:13.441Z,50.877121
2023-04-03T02:24:13.426Z,50.877155
2023-04-03T02:25:13.412Z,50.877243
2023-04-03T02:26:13.416Z,50.877197
2023-04-03T02:27:13.401Z,50.877281
2023-04-03T02:28:13.447Z,50.877274
2023-04-03T02:29:13.365Z,50.877285
2023-04-03T02:30:13.400Z,50.877281
2023-04-03T02:31:13.376Z,50.877251
2023-04-03T02:32:13.380Z,50.877239
2023-04-03T02:33:13.360Z,50.877228
2023-04-03T02:34:13.369Z,50.877247
2023-04-03T02:35:13.303Z,50.877277
2023-04-03T02:36:13.285Z,50.877258
2023-04-03T02:37:13.278Z,50.877201
2023-04-03T02:38:13.269Z,50.877251
2023-04-03T02:39:13.284Z,50.877220
2023-04-03T02:40:13.253Z,50.877277
2023-04-03T02:41:13.270Z,50.877216
2023-04-03T02:42:13.247Z,50.877239
2023-04-03T02:43:13.224Z,50.877163
2023-04-03T02:44:13.223Z,50.877216
2023-04-03T02:45:13.197Z,50.877201
2023-04-03T02:46:13.263Z,50.877201
2023-04-03T02:47:13.166Z,50.877243
2023-04-03T02:48:13.222Z,50.877224
2023-04-03T02:49:13.176Z,50.877216
2023-04-03T02:50:13.176Z,50.877209
2023-04-03T02:51:13.154Z,50.877209
2023-04-03T02:52:13.130Z,50.877155
2023-04-03T02:53:13.161Z,50.877193
2023-04-03T02:54:13.130Z,50.877224
2023-04-03T02:55:13.121Z,50.877228
2023-04-03T02:56:13.081Z,50.877178
2023-04-03T02:57:13.093Z,50.877186
2023-04-03T02:58:13.112Z,50.877197
2023-04-03T02:59:13.207Z,50.877193
2023-04-03T03:00:13.056Z,50.877190
2023-04-03T03:01:13.088Z,50.877190
2023-04-03T03:02:13.039Z,50.877209
2023-04-03T03:03:13.048Z,50.877205
2023-04-03T03:04:13.009Z,50.877220
2023-04-03T03:05:13.062Z,50.877205
2023-04-03T03:06:13.008Z,50.877216
2023-04-03T03:07:13.037Z,50.877193
2023-04-03T03:08:13.049Z,50.877220
2023-04-03T03:09:12.984Z,50.877213
2023-04-03T03:10:13.035Z,50.877213
2023-04-03T03:11:12.952Z,50.877197
2023-04-03T03:12:12.956Z,50.877220
2023-04-03T03:13:12.933Z,50.877216
2023-04-03T03:14:12.951Z,50.877186
2023-04-03T03:15:12.897Z,50.877193
2023-04-03T03:16:12.923Z,50.877193
2023-04-03T03:17:12.917Z,50.877182
2023-04-03T03:18:12.903Z,50.877129
2023-04-03T03:19:12.895Z,50.877155
2023-04-03T03:20:12.889Z,50.877171
2023-04-03T03:21:12.880Z,50.877129
2023-04-03T03:22:12.827Z,50.877186
2023-04-03T03:23:12.819Z,50.877155
2023-04-03T03:24:12.824Z,50.877197
2023-04-03T03:25:12.822Z,50.877159
2023-04-03T03:26:12.794Z,50.877155
2023-04-03T03:27:13.816Z,50.877178
2023-04-03T03:28:12.763Z,50.877186
2023-04-03T03:29:12.800Z,50.877151
2023-04-03T03:30:12.750Z,50.877140
2023-04-03T03:31:12.741Z,50.877121
2023-04-03T03:32:12.752Z,50.877171
2023-04-03T03:33:12.770Z,50.877167
2023-04-03T03:34:12.722Z,50.877171
2023-04-03T03:35:12.718Z,50.877213
2023-04-03T03:36:12.747Z,50.877232
2023-04-03T03:37:12.735Z,50.877182
2023-04-03T03:38:12.667Z,50.877239
2023-04-03T03:39:12.681Z,50.877178
2023-04-03T03:40:13.665Z,50.877186
2023-04-03T03:41:12.649Z,50.877197
2023-04-03T03:42:12.672Z,50.877182
2023-04-03T03:43:12.652Z,50.877201
2023-04-03T03:44:13.563Z,50.877171
2023-04-03T03:45:12.616Z,50.877171
2023-04-03T03:46:12.669Z,50.877190
2023-04-03T03:47:12.572Z,50.877190
2023-04-03T03:48:12.567Z,50.877186
2023-04-03T03:49:12.619Z,50.877171
2023-04-03T03:50:12.584Z,50.877197
2023-04-03T03:51:12.561Z,50.877151
2023-04-03T03:52:12.589Z,50.877171
2023-04-03T03:53:12.550Z,50.877163
2023-04-03T03:54:12.546Z,50.877182
2023-04-03T03:55:12.549Z,50.877167
2023-04-03T03:56:12.488Z,50.877190
2023-04-03T03:57:12.576Z,50.877163
2023-04-03T03:58:12.467Z,50.877140
2023-04-03T03:59:12.497Z,50.877113
2023-04-03T04:00:12.493Z,50.877132
2023-04-03T04:01:12.489Z,50.877159
2023-04-03T04:02:12.491Z,50.877155
2023-04-03T04:03:12.614Z,50.877144
2023-04-03T04:04:12.459Z,50.877155
2023-04-03T04:05:12.517Z,50.877193
2023-04-03T04:06:12.428Z,50.877151
2023-04-03T04:07:12.396Z,50.877121
2023-04-03T04:08:12.420Z,50.877129
2023-04-03T04:09:12.386Z,50.877148
2023-04-03T04:10:12.389Z,50.877136
2023-04-03T04:11:12.361Z,50.877159
2023-04-03T04:12:12.360Z,50.877136
2023-04-03T04:13:12.489Z,50.877155
2023-04-03T04:14:12.325Z,50.877151
2023-04-03T04:15:12.319Z,50.877125
2023-04-03T04:16:12.438Z,50.877102
2023-04-03T04:17:12.302Z,50.877014
2023-04-03T04:18:12.311Z,50.877182
2023-04-03T04:19:12.276Z,50.877182
2023-04-03T04:20:12.303Z,50.877171
2023-04-03T04:21:12.255Z,50.877193
2023-04-03T04:22:13.234Z,50.877171
2023-04-03T04:23:12.225Z,50.877197
2023-04-03T04:24:12.238Z,50.877182
2023-04-03T04:25:12.253Z,50.877174
2023-04-03T04:26:12.209Z,50.877174
2023-04-03T04:27:12.192Z,50.877178
2023-04-03T04:28:12.204Z,50.877167
2023-04-03T04:29:12.159Z,50.877171
2023-04-03T04:30:12.187Z,50.877159
2023-04-03T04:31:12.208Z,50.877174
2023-04-03T04:32:12.197Z,50.877216
2023-04-03T04:33:12.162Z,50.877178
2023-04-03T04:34:12.127Z,50.877178
2023-04-03T04:35:14.052Z,50.877174
2023-04-03T04:36:12.186Z,50.877144
2023-04-03T04:37:12.117Z,50.877125
2023-04-03T04:38:12.087Z,50.877178
2023-04-03T04:39:12.066Z,50.877193
2023-04-03T04:40:12.065Z,50.877163
2023-04-03T04:41:12.063Z,50.877178
2023-04-03T04:42:12.053Z,50.877190
2023-04-03T04:43:12.067Z,50.877193
2023-04-03T04:44:12.037Z,50.877174
2023-04-03T04:45:12.063Z,50.877186
2023-04-03T04:46:12.053Z,50.877186
2023-04-03T04:47:12.010Z,50.877155
2023-04-03T04:48:12.010Z,50.877151
2023-04-03T04:49:11.963Z,50.877132
2023-04-03T04:50:11.971Z,50.877140
2023-04-03T04:51:11.956Z,50.877144
2023-04-03T04:52:11.960Z,50.877167
2023-04-03T04:53:11.944Z,50.877167
2023-04-03T04:54:11.983Z,50.877186
2023-04-03T04:55:11.928Z,50.877171
2023-04-03T04:56:11.905Z,50.877197
2023-04-03T04:57:11.970Z,50.877224
2023-04-03T04:58:11.906Z,50.877213
2023-04-03T04:59:11.878Z,50.877201
2023-04-03T05:00:11.934Z,50.877209
2023-04-03T05:01:11.910Z,50.877205
2023-04-03T05:02:11.894Z,50.877213
2023-04-03T05:03:11.836Z,50.877201
2023-04-03T05:04:11.904Z,50.877193
2023-04-03T05:05:11.989Z,50.877201
2023-04-03T05:06:11.809Z,50.877197
2023-04-03T05:07:11.806Z,50.877201
2023-04-03T05:08:11.810Z,50.877209
2023-04-03T05:09:11.784Z,50.877247
2023-04-03T05:10:11.788Z,50.877213
2023-04-03T05:11:11.810Z,50.877228
2023-04-03T05:12:11.763Z,50.877243
2023-04-03T05:13:11.778Z,50.877174
2023-04-03T05:14:11.744Z,50.877209
2023-04-03T05:15:11.759Z,50.877197
2023-04-03T05:16:11.801Z,50.877258
2023-04-03T05:17:11.726Z,50.877220
2023-04-03T05:18:11.729Z,50.877193
2023-04-03T05:19:11.707Z,50.877193
2023-04-03T05:20:11.688Z,50.877182
2023-04-03T05:21:11.690Z,50.877197
2023-04-03T05:22:11.667Z,50.877190
2023-04-03T05:23:11.685Z,50.877205
2023-04-03T05:24:11.648Z,50.877205
2023-04-03T05:25:11.664Z,50.877228
2023-04-03T05:26:11.636Z,50.877262
2023-04-03T05:27:11.638Z,50.877201
2023-04-03T05:28:11.622Z,50.877197
2023-04-03T05:29:11.600Z,50.877235
2023-04-03T05:30:11.584Z,50.877190
2023-04-03T05:31:11.596Z,50.877193
2023-04-03T05:32:11.585Z,50.877235
2023-04-03T05:33:11.653Z,50.877228
2023-04-03T05:34:11.535Z,50.877205
2023-04-03T05:35:11.548Z,50.877243
2023-04-03T05:36:11.567Z,50.877193
2023-04-03T05:37:11.533Z,50.877186
2023-04-03T05:38:11.505Z,50.877190
2023-04-03T05:39:11.509Z,50.877216
2023-04-03T05:40:11.520Z,50.877186
2023-04-03T05:41:11.478Z,50.877144
2023-04-03T05:42:11.445Z,50.877205
2023-04-03T05:43:11.452Z,50.877224
2023-04-03T05:44:11.438Z,50.877235
2023-04-03T05:45:11.487Z,50.877228
2023-04-03T05:46:11.439Z,50.877224
2023-04-03T05:47:11.444Z,50.877205
2023-04-03T05:48:11.410Z,50.877213
2023-04-03T05:49:12.398Z,50.877228
2023-04-03T05:50:11.382Z,50.877205
2023-04-03T05:51:11.375Z,50.877201
2023-04-03T05:52:11.372Z,50.877232
2023-04-03T05:53:11.400Z,50.877224
2023-04-03T05:54:11.355Z,50.877209
2023-04-03T05:55:11.344Z,50.877205
2023-04-03T05:56:11.315Z,50.877193
2023-04-03T05:57:11.346Z,50.877182
2023-04-03T05:58:11.805Z,50.877190
2023-04-03T05:59:12.364Z,50.877201
2023-04-03T06:00:11.309Z,50.877197
2023-04-03T06:01:11.277Z,50.877205
2023-04-03T06:02:11.261Z,50.877201
2023-04-03T06:03:11.472Z,50.877201
2023-04-03T06:04:11.306Z,50.877216
2023-04-03T06:05:11.345Z,50.877220
2023-04-03T06:06:11.227Z,50.877213
2023-04-03T06:07:11.222Z,50.877224
2023-04-03T06:08:11.220Z,50.877201
2023-04-03T06:09:11.190Z,50.877213
2023-04-03T06:10:11.261Z,50.877201
2023-04-03T06:11:11.189Z,50.877209
2023-04-03T06:12:11.148Z,50.877213
2023-04-03T06:13:11.162Z,50.877201
2023-04-03T06:14:11.129Z,50.877205
2023-04-03T06:15:11.109Z,50.877190
2023-04-03T06:16:11.139Z,50.877209
2023-04-03T06:17:11.139Z,50.877220
2023-04-03T06:18:11.103Z,50.877197
2023-04-03T06:19:11.090Z,50.877201
2023-04-03T06:20:11.094Z,50.877205
2023-04-03T06:21:11.098Z,50.877209
2023-04-03T06:22:11.068Z,50.877213
2023-04-03T06:23:11.058Z,50.877228
2023-04-03T06:24:12.043Z,50.877213
2023-04-03T06:25:11.140Z,50.877193
2023-04-03T06:26:11.065Z,50.877178
2023-04-03T06:27:11.100Z,50.877171
2023-04-03T06:28:11.016Z,50.877186
2023-04-03T06:29:11.050Z,50.877190
2023-04-03T06:30:11.040Z,50.877178
2023-04-03T06:31:11.000Z,50.877174
2023-04-03T06:32:10.977Z,50.877209
2023-04-03T06:33:11.050Z,50.877224
2023-04-03T06:34:10.930Z,50.877213
2023-04-03T06:35:10.972Z,50.877186
2023-04-03T06:36:10.990Z,50.877220
2023-04-03T06:37:10.921Z,50.877205
2023-04-03T06:38:10.903Z,50.877197
2023-04-03T06:39:10.892Z,50.877232
2023-04-03T06:40:10.906Z,50.877224
2023-04-03T06:41:10.904Z,50.877205
2023-04-03T06:42:10.893Z,50.877190
2023-04-03T06:43:10.877Z,50.877213
2023-04-03T06:44:10.851Z,50.877182
2023-04-03T06:45:10.883Z,50.877197
2023-04-03T06:46:10.886Z,50.877228
2023-04-03T06:47:10.850Z,50.877232
2023-04-03T06:48:10.866Z,50.877232
2023-04-03T06:49:10.804Z,50.877209
2023-04-03T06:50:10.797Z,50.877197
2023-04-03T06:51:10.802Z,50.877197
2023-04-03T06:52:10.850Z,50.877209
2023-04-03T06:53:10.784Z,50.877213
2023-04-03T06:54:10.729Z,50.877209
2023-04-03T06:55:10.781Z,50.877232
2023-04-03T06:56:10.752Z,50.877235
2023-04-03T06:57:10.776Z,50.877125
2023-04-03T06:58:10.719Z,50.877186
2023-04-03T06:59:10.721Z,50.877258
2023-04-03T07:00:10.716Z,50.877216
2023-04-03T07:01:10.692Z,50.877163
2023-04-03T07:02:10.749Z,50.877129
2023-04-03T07:03:10.661Z,50.877163
2023-04-03T07:04:10.752Z,50.877205
2023-04-03T07:05:10.649Z,50.877228
2023-04-03T07:06:10.640Z,50.877247
2023-04-03T07:07:10.664Z,50.877213
2023-04-03T07:08:10.611Z,50.877186
2023-04-03T07:09:10.659Z,50.877209
2023-04-03T07:10:10.623Z,50.877243
2023-04-03T07:11:10.607Z,50.877209
2023-04-03T07:12:10.590Z,50.877205
2023-04-03T07:13:10.571Z,50.877201
2023-04-03T07:14:10.564Z,50.877216
2023-04-03T07:15:10.567Z,50.877224
2023-04-03T07:16:10.706Z,50.877239
2023-04-03T07:17:10.552Z,50.877266
2023-04-03T07:18:10.524Z,50.877258
2023-04-03T07:19:10.523Z,50.877216
2023-04-03T07:20:10.562Z,50.877235
2023-04-03T07:21:10.501Z,50.877224
2023-04-03T07:22:10.492Z,50.877209
2023-04-03T07:23:10.489Z,50.877224
2023-04-03T07:24:13.084Z,50.877216
2023-04-03T07:25:12.476Z,50.877209
2023-04-03T07:26:10.495Z,50.877205
2023-04-03T07:27:10.479Z,50.877190
2023-04-03T07:28:10.483Z,50.877197
2023-04-03T07:29:10.472Z,50.877220
2023-04-03T07:30:10.381Z,50.877205
2023-04-03T07:31:10.468Z,50.877197
2023-04-03T07:32:10.370Z,50.877186
2023-04-03T07:33:10.384Z,50.877209
2023-04-03T07:34:10.418Z,50.877197
2023-04-03T07:35:10.332Z,50.877171
2023-04-03T07:36:10.364Z,50.877197
2023-04-03T07:37:10.342Z,50.877213
2023-04-03T07:38:10.335Z,50.877201
2023-04-03T07:39:10.343Z,50.877224
2023-04-03T07:40:10.307Z,50.877220
2023-04-03T07:41:10.276Z,50.877193
2023-04-03T07:42:10.310Z,50.877186
2023-04-03T07:43:10.261Z,50.877182
2023-04-03T07:44:10.287Z,50.877193
2023-04-03T07:45:10.322Z,50.877193
2023-04-03T07:46:10.384Z,50.877209
2023-04-03T07:47:10.249Z,50.877182
2023-04-03T07:48:10.238Z,50.877186
2023-04-03T07:49:10.220Z,50.877178
2023-04-03T07:50:10.211Z,50.877209
2023-04-03T07:51:10.186Z,50.877232
2023-04-03T07:52:10.268Z,50.877235
2023-04-03T07:53:10.191Z,50.877262
2023-04-03T07:54:10.173Z,50.877254
2023-04-03T07:55:10.155Z,50.877251
2023-04-03T07:56:10.165Z,50.877232
2023-04-03T07:57:10.227Z,50.877239
2023-04-03T07:58:10.134Z,50.877220
2023-04-03T07:59:10.116Z,50.877205
2023-04-03T08:00:10.156Z,50.877209
2023-04-03T08:01:10.122Z,50.877193
2023-04-03T08:02:10.081Z,50.877190
2023-04-03T08:03:11.192Z,50.877178
2023-04-03T08:04:10.146Z,50.877213
2023-04-03T08:05:10.086Z,50.877228
2023-04-03T08:06:15.721Z,50.877224
2023-04-03T08:07:12.112Z,50.877228
2023-04-03T08:08:10.035Z,50.877239
2023-04-03T08:09:10.025Z,50.877270
2023-04-03T08:10:10.007Z,50.877201
2023-04-03T08:11:10.026Z,50.877201
2023-04-03T08:12:10.011Z,50.877205
2023-04-03T08:13:09.996Z,50.877209
2023-04-03T08:14:10.997Z,50.877197
2023-04-03T08:15:09.992Z,50.877197
2023-04-03T08:16:10.069Z,50.877201
2023-04-03T08:17:09.964Z,50.877224
2023-04-03T08:18:09.958Z,50.877216
2023-04-03T08:19:41.839Z,50.877201
2023-04-03T08:20:09.919Z,50.877190
2023-04-03T08:21:09.921Z,50.877182
2023-04-03T08:22:09.953Z,50.877209
2023-04-03T08:23:09.953Z,50.877201
2023-04-03T08:24:09.885Z,50.877186
2023-04-03T08:25:09.916Z,50.877174
2023-04-03T08:26:09.896Z,50.877167
2023-04-03T08:27:09.888Z,50.877163
2023-04-03T08:28:09.849Z,50.877178
2023-04-03T08:29:09.876Z,50.877178
2023-04-03T08:30:09.867Z,50.877174
2023-04-03T08:31:09.845Z,50.877163
2023-04-03T08:32:09.816Z,50.877167
2023-04-03T08:33:09.850Z,50.877182
2023-04-03T08:34:09.873Z,50.877190
2023-04-03T08:35:09.767Z,50.877186
2023-04-03T08:36:09.849Z,50.877186
2023-04-03T08:37:09.772Z,50.877201
2023-04-03T08:38:09.793Z,50.877190
2023-04-03T08:39:09.739Z,50.877182
2023-04-03T08:40:09.767Z,50.877171
2023-04-03T08:41:09.754Z,50.877178
2023-04-03T08:42:09.808Z,50.877193
2023-04-03T08:43:09.750Z,50.877216
2023-04-03T08:44:09.724Z,50.877205
2023-04-03T08:45:09.688Z,50.877216
2023-04-03T08:46:09.715Z,50.877220
2023-04-03T08:47:09.677Z,50.877220
2023-04-03T08:48:09.832Z,50.877216
2023-04-03T08:49:09.669Z,50.877224
2023-04-03T08:50:10.884Z,50.877224
2023-04-03T08:51:12.672Z,50.877197
2023-04-03T08:52:10.600Z,50.877209
2023-04-03T08:53:09.640Z,50.877216
2023-04-03T08:54:09.677Z,50.877216
2023-04-03T08:55:09.590Z,50.877197
2023-04-03T08:56:09.614Z,50.877193
2023-04-03T08:57:09.616Z,50.877209
2023-04-03T08:58:09.622Z,50.877155
2023-04-03T08:59:09.604Z,50.877171
2023-04-03T09:00:09.597Z,50.877186
2023-04-03T09:01:09.539Z,50.877186
2023-04-03T09:02:09.518Z,50.877182
2023-04-03T09:03:11.259Z,50.877171
2023-04-03T09:04:10.728Z,50.877144
2023-04-03T09:05:09.514Z,50.877148
2023-04-03T09:06:09.539Z,50.877121
2023-04-03T09:07:09.500Z,50.877163
2023-04-03T09:08:09.477Z,50.877171
2023-04-03T09:09:09.514Z,50.877171
2023-04-03T09:10:09.473Z,50.877190
2023-04-03T09:11:09.451Z,50.877193
2023-04-03T09:12:09.423Z,50.877197
2023-04-03T09:13:09.414Z,50.877155
2023-04-03T09:14:09.454Z,50.877140
2023-04-03T09:15:09.371Z,50.877171
2023-04-03T09:16:09.468Z,50.877182
2023-04-03T09:17:09.366Z,50.877201
2023-04-03T09:18:09.398Z,50.877159
2023-04-03T09:19:09.390Z,50.877178
2023-04-03T09:20:09.446Z,50.877174
2023-04-03T09:21:09.360Z,50.877129
2023-04-03T09:22:09.307Z,50.877178
2023-04-03T09:23:09.330Z,50.877216
2023-04-03T09:24:09.309Z,50.877167
2023-04-03T09:25:09.341Z,50.877213
2023-04-03T09:26:09.336Z,50.877186
2023-04-03T09:27:09.406Z,50.877197
2023-04-03T09:28:09.346Z,50.877174
2023-04-03T09:29:09.337Z,50.877171
2023-04-03T09:30:09.275Z,50.877201
2023-04-03T09:31:09.272Z,50.877182
2023-04-03T09:32:09.251Z,50.877178
2023-04-03T09:33:09.298Z,50.877125
2023-04-03T09:34:09.258Z,50.877171
2023-04-03T09:35:19.056Z,50.877132
2023-04-03T09:36:11.336Z,50.877136
2023-04-03T09:37:09.202Z,50.877136
2023-04-03T09:38:09.202Z,50.877159
2023-04-03T09:39:09.162Z,50.877144
2023-04-03T09:40:10.010Z,50.877064
2023-04-03T09:41:09.165Z,50.877121
2023-04-03T09:42:09.158Z,50.877151
2023-04-03T09:43:09.187Z,50.877171
2023-04-03T09:44:09.166Z,50.877178
2023-04-03T09:45:09.128Z,50.877197
2023-04-03T09:46:09.115Z,50.877182
2023-04-03T09:47:09.107Z,50.877167
2023-04-03T09:48:15.295Z,50.877174
2023-04-03T09:49:11.099Z,50.877155
2023-04-03T09:50:09.065Z,50.877121
2023-04-03T09:51:09.042Z,50.877159
2023-04-03T09:52:09.114Z,50.877167
2023-04-03T09:53:09.014Z,50.877171
2023-04-03T09:54:09.069Z,50.877163
2023-04-03T09:55:08.986Z,50.877171
2023-04-03T09:56:08.983Z,50.877182
2023-04-03T09:57:09.077Z,50.877190
2023-04-03T09:58:08.969Z,50.877159
2023-04-03T09:59:08.985Z,50.877197
2023-04-03T10:00:08.918Z,50.877186
2023-04-03T10:01:09.094Z,50.877193
2023-04-03T10:02:08.933Z,50.877209
2023-04-03T10:03:08.942Z,50.877213
2023-04-03T10:04:09.071Z,50.877239
2023-04-03T10:05:10.119Z,50.877193
2023-04-03T10:06:09.907Z,50.877125
2023-04-03T10:07:09.956Z,50.877132
2023-04-03T10:09:08.840Z,50.877186
2023-04-03T10:10:08.829Z,50.877190
2023-04-03T10:11:08.886Z,50.877178
2023-04-03T10:12:08.855Z,50.877182
2023-04-03T10:13:10.572Z,50.877159
2023-04-03T10:14:09.586Z,50.877140
2023-04-03T10:15:08.799Z,50.877197
2023-04-03T10:16:08.867Z,50.877186
2023-04-03T10:17:08.864Z,50.877197
2023-04-03T10:18:21.626Z,50.877117
2023-04-03T10:19:10.789Z,50.877171
2023-04-03T10:20:08.811Z,50.877163
2023-04-03T10:21:14.516Z,50.877174
2023-04-03T10:22:10.719Z,50.877205
2023-04-03T10:23:08.708Z,50.877193
2023-04-03T10:24:08.711Z,50.877205
2023-04-03T10:25:08.722Z,50.877190
2023-04-03T10:26:08.726Z,50.877167
2023-04-03T10:27:08.699Z,50.877129
2023-04-03T10:28:08.716Z,50.877163
2023-04-03T10:29:08.674Z,50.877220
2023-04-03T10:30:08.695Z,50.877182
2023-04-03T10:31:08.686Z,50.877174
2023-04-03T10:32:08.738Z,50.877167
2023-04-03T10:33:08.691Z,50.877220
2023-04-03T10:34:08.636Z,50.877171
2023-04-03T10:35:08.612Z,50.877159
2023-04-03T10:36:08.622Z,50.877186
2023-04-03T10:37:08.646Z,50.877159
2023-04-03T10:38:08.582Z,50.877171
2023-04-03T10:39:08.582Z,50.877281
2023-04-03T10:40:08.708Z,50.877163
2023-04-03T10:41:08.536Z,50.877174
2023-04-03T10:42:15.999Z,50.877178
2023-04-03T10:43:10.549Z,50.877201
2023-04-03T10:44:08.537Z,50.877289
2023-04-03T10:45:08.539Z,50.877201
2023-04-03T10:46:08.560Z,50.877144
2023-04-03T10:47:08.512Z,50.877190
2023-04-03T10:48:08.531Z,50.877235
2023-04-03T10:49:08.460Z,50.877201
2023-04-03T10:50:08.522Z,50.877102
2023-04-03T10:51:08.443Z,50.877140
2023-04-03T10:52:08.420Z,50.877327
2023-04-03T10:53:08.422Z,50.877281
2023-04-03T10:54:08.470Z,50.877235
2023-04-03T10:55:08.406Z,50.877296
2023-04-03T10:56:08.540Z,50.877232
2023-04-03T10:57:12.615Z,50.877266
2023-04-03T10:58:09.452Z,50.877331
2023-04-03T10:59:08.360Z,50.877243
2023-04-03T11:00:08.342Z,50.877171
2023-04-03T11:01:08.441Z,50.877209
2023-04-03T11:02:08.350Z,50.877247
2023-04-03T11:03:08.416Z,50.877304
2023-04-03T11:04:08.485Z,50.877289
2023-04-03T11:05:08.284Z,50.877289
2023-04-03T11:06:08.303Z,50.877289
2023-04-03T11:07:08.311Z,50.877289
2023-04-03T11:08:08.316Z,50.877289
2023-04-03T11:09:08.318Z,50.877289
2023-04-03T11:10:08.254Z,50.877289
2023-04-03T11:11:08.237Z,50.877289
2023-04-03T11:12:08.294Z,50.877289
2023-04-03T11:13:08.243Z,50.877289
2023-04-03T11:14:08.273Z,50.877289
2023-04-03T11:15:08.221Z,50.877285
2023-04-03T11:16:08.215Z,50.877281
2023-04-03T11:17:08.231Z,50.877258
2023-04-03T11:18:09.783Z,50.877232
2023-04-03T11:19:08.171Z,50.877205
2023-04-03T11:20:08.173Z,50.877197
2023-04-03T11:21:08.228Z,50.877167
2023-04-03T11:22:08.103Z,50.877155
2023-04-03T11:23:08.117Z,50.877155
2023-04-03T11:24:08.136Z,50.877155
2023-04-03T11:25:08.135Z,50.877155